Accueil
METAR-TAF:

METAR-TAF

Aéroports :

Schenectady County Airport

Schenectady, New York, États-Unis

latitude: 42-51N, longitude: 073-56W, altitude: 115 m

Observation

Le bulletin a été fait il y a 2 heures et 55 minutes, à 01:58 UTC
Vent 3 kt de nord-ouest
Température 14°C
Humidité 100%
Pression 1008 hPa
Visibilité: 11.3 km
Nuages fragmentés à une hauteur de 2500 ft
Ciel couvert à une hauteur de 2900 ft
pluie faible

METAR: KSCH 300158Z 31003KT 7SM -RA SCT09 BKN025 OVC029 14/14 A2976 RMK LAST

Heure: 00:53 (04:53 UTC)


TAF: absent

Observations et prévisions météorologiques de plus de 4000 aéroports (messages METAR et TAF).

Les stations disponibles sont représentées par des disques jaunes et rouges sur la carte.

Passer la souris dessus pour voir le nom de la station.

Cliquer dessus pour voir les observations et prévisions météorologiques.

Pour changer de carte: cliquez sur les boutons verts avec une croix noire pour zoomer, sur le bouton vert avec un tiret pour effectuer un zoom arrière, ou sur les flèches vertes pour les cartes adjacentes.


METAR-TAF: